sensor_id;sensor_type;location;lat;lon;timestamp;temperature;humidity
18450;DHT22;9354;50.194;7.690;2022-07-23T00:00:50;20.10;99.90
18450;DHT22;9354;50.194;7.690;2022-07-23T00:03:17;20.10;99.90
18450;DHT22;9354;50.194;7.690;2022-07-23T00:05:46;20.10;99.90
18450;DHT22;9354;50.194;7.690;2022-07-23T00:08:14;20.10;99.90
18450;DHT22;9354;50.194;7.690;2022-07-23T00:10:41;20.10;99.90
18450;DHT22;9354;50.194;7.690;2022-07-23T00:13:09;20.10;99.90
18450;DHT22;9354;50.194;7.690;2022-07-23T00:15:36;20.10;99.90
18450;DHT22;9354;50.194;7.690;2022-07-23T00:18:04;20.10;99.90
18450;DHT22;9354;50.194;7.690;2022-07-23T00:20:31;20.10;99.90
18450;DHT22;9354;50.194;7.690;2022-07-23T00:23:00;20.10;99.90
18450;DHT22;9354;50.194;7.690;2022-07-23T00:25:27;20.00;99.90
18450;DHT22;9354;50.194;7.690;2022-07-23T00:27:55;20.10;99.90
18450;DHT22;9354;50.194;7.690;2022-07-23T00:30:22;20.00;99.90
18450;DHT22;9354;50.194;7.690;2022-07-23T00:32:51;20.00;99.90
18450;DHT22;9354;50.194;7.690;2022-07-23T00:35:20;20.00;99.90
18450;DHT22;9354;50.194;7.690;2022-07-23T00:37:48;20.00;99.90
18450;DHT22;9354;50.194;7.690;2022-07-23T00:40:17;20.00;99.90
18450;DHT22;9354;50.194;7.690;2022-07-23T00:42:44;19.90;99.90
18450;DHT22;9354;50.194;7.690;2022-07-23T00:45:12;19.90;99.90
18450;DHT22;9354;50.194;7.690;2022-07-23T00:47:40;19.80;99.90
18450;DHT22;9354;50.194;7.690;2022-07-23T00:50:08;19.70;99.90
18450;DHT22;9354;50.194;7.690;2022-07-23T00:52:37;19.70;99.90
18450;DHT22;9354;50.194;7.690;2022-07-23T00:55:06;19.60;99.90
18450;DHT22;9354;50.194;7.690;2022-07-23T00:57:35;19.50;99.90
18450;DHT22;9354;50.194;7.690;2022-07-23T01:00:05;19.50;99.90
18450;DHT22;9354;50.194;7.690;2022-07-23T01:02:33;19.40;99.90
18450;DHT22;9354;50.194;7.690;2022-07-23T01:05:00;19.40;99.90
18450;DHT22;9354;50.194;7.690;2022-07-23T01:07:28;19.30;99.90
18450;DHT22;9354;50.194;7.690;2022-07-23T01:09:55;19.30;99.90
18450;DHT22;9354;50.194;7.690;2022-07-23T01:12:23;19.40;99.90
18450;DHT22;9354;50.194;7.690;2022-07-23T01:14:55;19.40;99.90
18450;DHT22;9354;50.194;7.690;2022-07-23T01:17:23;19.30;99.90
18450;DHT22;9354;50.194;7.690;2022-07-23T01:19:50;19.30;99.90
18450;DHT22;9354;50.194;7.690;2022-07-23T01:22:19;19.20;99.90
18450;DHT22;9354;50.194;7.690;2022-07-23T01:24:48;19.20;99.90
18450;DHT22;9354;50.194;7.690;2022-07-23T01:27:15;19.20;99.90
18450;DHT22;9354;50.194;7.690;2022-07-23T01:29:43;19.20;99.90
18450;DHT22;9354;50.194;7.690;2022-07-23T01:32:11;19.20;99.90
18450;DHT22;9354;50.194;7.690;2022-07-23T01:34:38;19.20;99.90
18450;DHT22;9354;50.194;7.690;2022-07-23T01:37:06;19.20;99.90
18450;DHT22;9354;50.194;7.690;2022-07-23T01:39:34;19.20;99.90
18450;DHT22;9354;50.194;7.690;2022-07-23T01:42:03;19.20;99.90
18450;DHT22;9354;50.194;7.690;2022-07-23T01:44:30;19.20;99.90
18450;DHT22;9354;50.194;7.690;2022-07-23T01:46:57;19.20;99.90
18450;DHT22;9354;50.194;7.690;2022-07-23T01:49:25;19.20;99.90
18450;DHT22;9354;50.194;7.690;2022-07-23T01:51:52;19.20;99.90
18450;DHT22;9354;50.194;7.690;2022-07-23T01:54:33;19.30;99.90
18450;DHT22;9354;50.194;7.690;2022-07-23T01:57:02;19.30;99.90
18450;DHT22;9354;50.194;7.690;2022-07-23T01:59:30;19.30;99.90
18450;DHT22;9354;50.194;7.690;2022-07-23T02:01:57;19.30;99.90
18450;DHT22;9354;50.194;7.690;2022-07-23T02:04:25;19.30;99.90
18450;DHT22;9354;50.194;7.690;2022-07-23T02:06:53;19.30;99.90
18450;DHT22;9354;50.194;7.690;2022-07-23T02:09:21;19.30;99.90
18450;DHT22;9354;50.194;7.690;2022-07-23T02:11:48;19.30;99.90
18450;DHT22;9354;50.194;7.690;2022-07-23T02:14:17;19.20;99.90
18450;DHT22;9354;50.194;7.690;2022-07-23T02:16:44;19.20;99.90
18450;DHT22;9354;50.194;7.690;2022-07-23T02:19:12;19.20;99.90
18450;DHT22;9354;50.194;7.690;2022-07-23T02:21:39;19.20;99.90
18450;DHT22;9354;50.194;7.690;2022-07-23T02:24:07;19.20;99.90
18450;DHT22;9354;50.194;7.690;2022-07-23T02:26:34;19.20;99.90
18450;DHT22;9354;50.194;7.690;2022-07-23T02:29:02;19.10;99.90
18450;DHT22;9354;50.194;7.690;2022-07-23T02:31:31;19.10;99.90
18450;DHT22;9354;50.194;7.690;2022-07-23T02:33:58;19.00;99.90
18450;DHT22;9354;50.194;7.690;2022-07-23T02:36:25;19.00;99.90
18450;DHT22;9354;50.194;7.690;2022-07-23T02:38:53;18.90;99.90
18450;DHT22;9354;50.194;7.690;2022-07-23T02:41:20;18.90;99.90
18450;DHT22;9354;50.194;7.690;2022-07-23T02:43:48;18.80;99.90
18450;DHT22;9354;50.194;7.690;2022-07-23T02:46:15;18.80;99.90
18450;DHT22;9354;50.194;7.690;2022-07-23T02:48:46;18.80;99.90
18450;DHT22;9354;50.194;7.690;2022-07-23T02:51:14;18.70;99.90
18450;DHT22;9354;50.194;7.690;2022-07-23T02:53:41;18.70;99.90
18450;DHT22;9354;50.194;7.690;2022-07-23T02:56:09;18.80;99.90
18450;DHT22;9354;50.194;7.690;2022-07-23T02:58:36;18.70;99.90
18450;DHT22;9354;50.194;7.690;2022-07-23T03:01:04;18.70;99.90
18450;DHT22;9354;50.194;7.690;2022-07-23T03:03:31;18.70;99.90
18450;DHT22;9354;50.194;7.690;2022-07-23T03:06:00;18.70;99.90
18450;DHT22;9354;50.194;7.690;2022-07-23T03:08:27;18.70;99.90
18450;DHT22;9354;50.194;7.690;2022-07-23T03:10:55;18.70;99.90
18450;DHT22;9354;50.194;7.690;2022-07-23T03:13:22;18.70;99.90
18450;DHT22;9354;50.194;7.690;2022-07-23T03:15:49;18.70;99.90
18450;DHT22;9354;50.194;7.690;2022-07-23T03:18:17;18.60;99.90
18450;DHT22;9354;50.194;7.690;2022-07-23T03:20:44;18.60;99.90
18450;DHT22;9354;50.194;7.690;2022-07-23T03:23:13;18.60;99.90
18450;DHT22;9354;50.194;7.690;2022-07-23T03:25:41;18.60;99.90
18450;DHT22;9354;50.194;7.690;2022-07-23T03:28:08;18.50;99.90
18450;DHT22;9354;50.194;7.690;2022-07-23T03:30:35;18.50;99.90
18450;DHT22;9354;50.194;7.690;2022-07-23T03:33:03;18.50;99.90
18450;DHT22;9354;50.194;7.690;2022-07-23T03:35:30;18.50;99.90
18450;DHT22;9354;50.194;7.690;2022-07-23T03:37:57;18.40;99.90
18450;DHT22;9354;50.194;7.690;2022-07-23T03:40:26;18.50;99.90
18450;DHT22;9354;50.194;7.690;2022-07-23T03:42:54;18.50;99.90
18450;DHT22;9354;50.194;7.690;2022-07-23T03:45:21;18.50;99.90
18450;DHT22;9354;50.194;7.690;2022-07-23T03:47:48;18.60;99.90
18450;DHT22;9354;50.194;7.690;2022-07-23T03:50:16;18.60;99.90
18450;DHT22;9354;50.194;7.690;2022-07-23T03:52:44;18.60;99.90
18450;DHT22;9354;50.194;7.690;2022-07-23T03:55:11;18.60;99.90
18450;DHT22;9354;50.194;7.690;2022-07-23T03:57:40;18.60;99.90
18450;DHT22;9354;50.194;7.690;2022-07-23T04:00:09;18.70;99.90
18450;DHT22;9354;50.194;7.690;2022-07-23T04:02:37;18.70;99.90
18450;DHT22;9354;50.194;7.690;2022-07-23T04:05:05;18.70;99.90
18450;DHT22;9354;50.194;7.690;2022-07-23T04:07:33;18.80;99.90
18450;DHT22;9354;50.194;7.690;2022-07-23T04:10:00;18.80;99.90
18450;DHT22;9354;50.194;7.690;2022-07-23T04:12:28;18.80;99.90
18450;DHT22;9354;50.194;7.690;2022-07-23T04:14:56;18.80;99.90
18450;DHT22;9354;50.194;7.690;2022-07-23T04:17:24;18.80;99.90
18450;DHT22;9354;50.194;7.690;2022-07-23T04:19:51;18.80;99.90
18450;DHT22;9354;50.194;7.690;2022-07-23T04:22:18;18.70;99.90
18450;DHT22;9354;50.194;7.690;2022-07-23T04:24:46;18.70;99.90
18450;DHT22;9354;50.194;7.690;2022-07-23T04:27:13;18.60;99.90
18450;DHT22;9354;50.194;7.690;2022-07-23T04:29:41;18.60;99.90
18450;DHT22;9354;50.194;7.690;2022-07-23T04:32:10;18.50;99.90
18450;DHT22;9354;50.194;7.690;2022-07-23T04:34:38;18.50;99.90
18450;DHT22;9354;50.194;7.690;2022-07-23T04:37:05;18.50;99.90
18450;DHT22;9354;50.194;7.690;2022-07-23T04:39:33;18.50;99.90
18450;DHT22;9354;50.194;7.690;2022-07-23T04:42:00;18.60;99.90
18450;DHT22;9354;50.194;7.690;2022-07-23T04:44:27;18.60;99.90
18450;DHT22;9354;50.194;7.690;2022-07-23T04:46:55;18.60;99.90
18450;DHT22;9354;50.194;7.690;2022-07-23T04:49:24;18.60;99.90
18450;DHT22;9354;50.194;7.690;2022-07-23T04:51:51;18.60;99.90
18450;DHT22;9354;50.194;7.690;2022-07-23T04:54:18;18.60;99.90
18450;DHT22;9354;50.194;7.690;2022-07-23T04:56:46;18.60;99.90
18450;DHT22;9354;50.194;7.690;2022-07-23T04:59:13;18.60;99.90
18450;DHT22;9354;50.194;7.690;2022-07-23T05:01:40;18.70;99.90
18450;DHT22;9354;50.194;7.690;2022-07-23T05:04:08;18.70;99.90
18450;DHT22;9354;50.194;7.690;2022-07-23T05:06:37;18.80;99.90
18450;DHT22;9354;50.194;7.690;2022-07-23T05:09:05;18.80;99.90
18450;DHT22;9354;50.194;7.690;2022-07-23T05:11:32;18.80;99.90
18450;DHT22;9354;50.194;7.690;2022-07-23T05:13:59;18.80;99.90
18450;DHT22;9354;50.194;7.690;2022-07-23T05:16:27;18.70;99.90
18450;DHT22;9354;50.194;7.690;2022-07-23T05:18:54;18.70;99.90
18450;DHT22;9354;50.194;7.690;2022-07-23T05:21:21;18.70;99.90
18450;DHT22;9354;50.194;7.690;2022-07-23T05:23:50;18.70;99.90
18450;DHT22;9354;50.194;7.690;2022-07-23T05:26:18;18.70;99.90
18450;DHT22;9354;50.194;7.690;2022-07-23T05:28:45;18.70;99.90
18450;DHT22;9354;50.194;7.690;2022-07-23T05:31:12;18.70;99.90
18450;DHT22;9354;50.194;7.690;2022-07-23T05:33:40;18.70;99.90
18450;DHT22;9354;50.194;7.690;2022-07-23T05:36:07;18.70;99.90
18450;DHT22;9354;50.194;7.690;2022-07-23T05:38:35;18.60;99.90
18450;DHT22;9354;50.194;7.690;2022-07-23T05:41:04;18.60;99.90
18450;DHT22;9354;50.194;7.690;2022-07-23T05:43:31;18.70;99.90
18450;DHT22;9354;50.194;7.690;2022-07-23T05:45:59;18.70;99.90
18450;DHT22;9354;50.194;7.690;2022-07-23T05:48:26;18.80;99.90
18450;DHT22;9354;50.194;7.690;2022-07-23T05:50:54;18.80;99.90
18450;DHT22;9354;50.194;7.690;2022-07-23T05:53:21;18.90;99.90
18450;DHT22;9354;50.194;7.690;2022-07-23T05:55:49;18.90;99.90
18450;DHT22;9354;50.194;7.690;2022-07-23T05:58:18;19.00;99.90
18450;DHT22;9354;50.194;7.690;2022-07-23T06:00:45;19.00;99.90
18450;DHT22;9354;50.194;7.690;2022-07-23T06:03:12;19.10;99.90
18450;DHT22;9354;50.194;7.690;2022-07-23T06:05:40;19.10;99.90
18450;DHT22;9354;50.194;7.690;2022-07-23T06:08:07;19.10;99.90
18450;DHT22;9354;50.194;7.690;2022-07-23T06:10:35;19.10;99.90
18450;DHT22;9354;50.194;7.690;2022-07-23T06:13:02;19.00;99.90
18450;DHT22;9354;50.194;7.690;2022-07-23T06:15:31;19.00;99.90
18450;DHT22;9354;50.194;7.690;2022-07-23T06:17:58;19.00;99.90
18450;DHT22;9354;50.194;7.690;2022-07-23T06:20:26;19.00;99.90
18450;DHT22;9354;50.194;7.690;2022-07-23T06:22:53;19.00;99.90
18450;DHT22;9354;50.194;7.690;2022-07-23T06:25:20;19.10;99.90
18450;DHT22;9354;50.194;7.690;2022-07-23T06:27:48;19.10;99.90
18450;DHT22;9354;50.194;7.690;2022-07-23T06:30:16;19.10;99.90
18450;DHT22;9354;50.194;7.690;2022-07-23T06:32:46;19.20;99.90
18450;DHT22;9354;50.194;7.690;2022-07-23T06:35:13;19.30;99.90
18450;DHT22;9354;50.194;7.690;2022-07-23T06:37:41;19.30;99.90
18450;DHT22;9354;50.194;7.690;2022-07-23T06:40:09;19.30;99.90
18450;DHT22;9354;50.194;7.690;2022-07-23T06:42:37;19.30;99.90
18450;DHT22;9354;50.194;7.690;2022-07-23T06:45:06;19.40;99.90
18450;DHT22;9354;50.194;7.690;2022-07-23T06:47:34;19.40;99.90
18450;DHT22;9354;50.194;7.690;2022-07-23T06:50:03;19.40;99.90
18450;DHT22;9354;50.194;7.690;2022-07-23T06:52:30;19.50;99.90
18450;DHT22;9354;50.194;7.690;2022-07-23T06:54:58;19.50;99.90
18450;DHT22;9354;50.194;7.690;2022-07-23T06:57:25;19.60;99.90
18450;DHT22;9354;50.194;7.690;2022-07-23T06:59:53;19.70;99.90
18450;DHT22;9354;50.194;7.690;2022-07-23T07:02:20;19.80;99.90
18450;DHT22;9354;50.194;7.690;2022-07-23T07:04:48;19.80;99.90
18450;DHT22;9354;50.194;7.690;2022-07-23T07:07:17;19.80;99.90
18450;DHT22;9354;50.194;7.690;2022-07-23T07:09:44;19.90;99.90
18450;DHT22;9354;50.194;7.690;2022-07-23T07:12:12;19.90;99.90
18450;DHT22;9354;50.194;7.690;2022-07-23T07:14:39;19.90;99.90
18450;DHT22;9354;50.194;7.690;2022-07-23T07:17:06;20.00;99.90
18450;DHT22;9354;50.194;7.690;2022-07-23T07:19:34;20.00;99.90
18450;DHT22;9354;50.194;7.690;2022-07-23T07:22:02;20.00;99.90
18450;DHT22;9354;50.194;7.690;2022-07-23T07:24:31;20.00;99.90
18450;DHT22;9354;50.194;7.690;2022-07-23T07:26:58;20.00;99.90
18450;DHT22;9354;50.194;7.690;2022-07-23T07:29:26;20.00;99.90
18450;DHT22;9354;50.194;7.690;2022-07-23T07:31:54;20.10;99.90
18450;DHT22;9354;50.194;7.690;2022-07-23T07:34:21;20.20;99.90
18450;DHT22;9354;50.194;7.690;2022-07-23T07:36:49;20.20;99.90
18450;DHT22;9354;50.194;7.690;2022-07-23T07:39:16;20.20;99.90
18450;DHT22;9354;50.194;7.690;2022-07-23T07:41:45;20.20;99.90
18450;DHT22;9354;50.194;7.690;2022-07-23T07:44:12;20.20;99.90
18450;DHT22;9354;50.194;7.690;2022-07-23T07:46:40;20.20;99.90
18450;DHT22;9354;50.194;7.690;2022-07-23T07:49:07;20.20;99.90
18450;DHT22;9354;50.194;7.690;2022-07-23T07:51:35;20.30;99.90
18450;DHT22;9354;50.194;7.690;2022-07-23T07:54:02;20.30;99.90
18450;DHT22;9354;50.194;7.690;2022-07-23T07:56:30;20.40;99.90
18450;DHT22;9354;50.194;7.690;2022-07-23T07:58:58;20.50;99.90
18450;DHT22;9354;50.194;7.690;2022-07-23T08:01:27;20.50;99.90
18450;DHT22;9354;50.194;7.690;2022-07-23T08:03:54;20.50;99.90
18450;DHT22;9354;50.194;7.690;2022-07-23T08:06:21;20.50;99.90
18450;DHT22;9354;50.194;7.690;2022-07-23T08:08:49;20.50;99.90
18450;DHT22;9354;50.194;7.690;2022-07-23T08:11:16;20.60;99.90
18450;DHT22;9354;50.194;7.690;2022-07-23T08:13:44;20.60;99.90
18450;DHT22;9354;50.194;7.690;2022-07-23T08:16:12;20.70;99.90
18450;DHT22;9354;50.194;7.690;2022-07-23T08:18:40;20.80;99.90
18450;DHT22;9354;50.194;7.690;2022-07-23T08:21:07;21.00;99.90
18450;DHT22;9354;50.194;7.690;2022-07-23T08:23:35;21.10;99.90
18450;DHT22;9354;50.194;7.690;2022-07-23T08:26:02;21.20;99.90
18450;DHT22;9354;50.194;7.690;2022-07-23T08:28:30;21.40;99.90
18450;DHT22;9354;50.194;7.690;2022-07-23T08:30:59;21.50;99.90
18450;DHT22;9354;50.194;7.690;2022-07-23T08:33:28;21.60;99.90
18450;DHT22;9354;50.194;7.690;2022-07-23T08:35:55;21.70;99.90
18450;DHT22;9354;50.194;7.690;2022-07-23T08:38:23;21.80;99.90
18450;DHT22;9354;50.194;7.690;2022-07-23T08:40:52;21.90;99.90
18450;DHT22;9354;50.194;7.690;2022-07-23T08:43:21;22.00;99.90
18450;DHT22;9354;50.194;7.690;2022-07-23T08:45:51;22.10;99.90
18450;DHT22;9354;50.194;7.690;2022-07-23T08:48:20;22.30;99.90
18450;DHT22;9354;50.194;7.690;2022-07-23T08:50:52;22.50;99.90
18450;DHT22;9354;50.194;7.690;2022-07-23T08:53:21;22.80;99.90
18450;DHT22;9354;50.194;7.690;2022-07-23T08:55:51;23.00;99.90
18450;DHT22;9354;50.194;7.690;2022-07-23T08:58:19;23.20;99.90
18450;DHT22;9354;50.194;7.690;2022-07-23T09:00:47;23.40;99.90
18450;DHT22;9354;50.194;7.690;2022-07-23T09:03:16;23.50;99.90
18450;DHT22;9354;50.194;7.690;2022-07-23T09:05:44;23.70;99.90
18450;DHT22;9354;50.194;7.690;2022-07-23T09:08:14;23.70;99.90
18450;DHT22;9354;50.194;7.690;2022-07-23T09:10:48;23.70;99.90
18450;DHT22;9354;50.194;7.690;2022-07-23T09:13:45;23.80;99.90
18450;DHT22;9354;50.194;7.690;2022-07-23T09:16:14;23.80;99.90
18450;DHT22;9354;50.194;7.690;2022-07-23T09:18:45;23.70;99.90
18450;DHT22;9354;50.194;7.690;2022-07-23T09:21:21;23.70;99.90
18450;DHT22;9354;50.194;7.690;2022-07-23T09:23:53;23.80;99.90
18450;DHT22;9354;50.194;7.690;2022-07-23T09:26:26;23.90;99.90
18450;DHT22;9354;50.194;7.690;2022-07-23T09:28:58;23.90;99.90
18450;DHT22;9354;50.194;7.690;2022-07-23T09:31:31;24.00;99.90
18450;DHT22;9354;50.194;7.690;2022-07-23T09:34:08;24.00;99.90
18450;DHT22;9354;50.194;7.690;2022-07-23T09:36:36;24.20;99.90
18450;DHT22;9354;50.194;7.690;2022-07-23T09:39:05;24.30;99.90
18450;DHT22;9354;50.194;7.690;2022-07-23T09:41:42;24.30;99.90
18450;DHT22;9354;50.194;7.690;2022-07-23T09:44:11;24.40;99.90
18450;DHT22;9354;50.194;7.690;2022-07-23T09:46:40;24.70;99.90
18450;DHT22;9354;50.194;7.690;2022-07-23T09:49:13;25.00;99.90
18450;DHT22;9354;50.194;7.690;2022-07-23T09:51:45;25.40;99.90
18450;DHT22;9354;50.194;7.690;2022-07-23T09:54:39;25.60;99.90
18450;DHT22;9354;50.194;7.690;2022-07-23T09:57:10;25.70;99.90
18450;DHT22;9354;50.194;7.690;2022-07-23T09:59:42;25.60;99.90
18450;DHT22;9354;50.194;7.690;2022-07-23T10:02:11;25.60;99.90
18450;DHT22;9354;50.194;7.690;2022-07-23T10:04:39;25.60;99.90
18450;DHT22;9354;50.194;7.690;2022-07-23T10:07:08;25.70;99.90
18450;DHT22;9354;50.194;7.690;2022-07-23T10:09:39;25.70;99.90
18450;DHT22;9354;50.194;7.690;2022-07-23T10:12:10;25.80;99.90
18450;DHT22;9354;50.194;7.690;2022-07-23T10:14:51;25.80;99.90
18450;DHT22;9354;50.194;7.690;2022-07-23T10:17:18;25.90;99.90
18450;DHT22;9354;50.194;7.690;2022-07-23T10:19:45;26.00;99.90
18450;DHT22;9354;50.194;7.690;2022-07-23T10:22:15;26.10;99.90
18450;DHT22;9354;50.194;7.690;2022-07-23T10:24:56;26.10;99.90
18450;DHT22;9354;50.194;7.690;2022-07-23T10:30:22;26.40;98.90
18450;DHT22;9354;50.194;7.690;2022-07-23T10:33:03;26.40;98.50
18450;DHT22;9354;50.194;7.690;2022-07-23T10:35:37;26.50;98.30
18450;DHT22;9354;50.194;7.690;2022-07-23T10:38:11;26.60;97.90
18450;DHT22;9354;50.194;7.690;2022-07-23T10:40:54;26.70;97.40
18450;DHT22;9354;50.194;7.690;2022-07-23T10:43:22;26.70;97.00
18450;DHT22;9354;50.194;7.690;2022-07-23T10:45:50;26.70;96.50
18450;DHT22;9354;50.194;7.690;2022-07-23T10:48:19;26.60;96.10
18450;DHT22;9354;50.194;7.690;2022-07-23T10:51:07;26.60;96.20
18450;DHT22;9354;50.194;7.690;2022-07-23T10:53:54;26.60;96.30
18450;DHT22;9354;50.194;7.690;2022-07-23T10:56:51;26.70;96.40
18450;DHT22;9354;50.194;7.690;2022-07-23T10:59:32;26.80;96.00
18450;DHT22;9354;50.194;7.690;2022-07-23T11:02:23;26.90;95.60
18450;DHT22;9354;50.194;7.690;2022-07-23T11:04:52;26.90;95.20
18450;DHT22;9354;50.194;7.690;2022-07-23T11:07:20;27.00;95.20
18450;DHT22;9354;50.194;7.690;2022-07-23T11:09:47;27.10;94.60
18450;DHT22;9354;50.194;7.690;2022-07-23T11:12:37;27.10;94.80
18450;DHT22;9354;50.194;7.690;2022-07-23T11:15:06;27.20;95.00
18450;DHT22;9354;50.194;7.690;2022-07-23T11:17:38;27.40;94.80
18450;DHT22;9354;50.194;7.690;2022-07-23T11:20:20;27.50;94.60
18450;DHT22;9354;50.194;7.690;2022-07-23T11:22:50;27.70;94.60
18450;DHT22;9354;50.194;7.690;2022-07-23T11:25:35;27.90;94.40
18450;DHT22;9354;50.194;7.690;2022-07-23T11:28:11;28.10;93.90
18450;DHT22;9354;50.194;7.690;2022-07-23T11:30:41;28.20;93.50
18450;DHT22;9354;50.194;7.690;2022-07-23T11:33:20;28.30;93.40
18450;DHT22;9354;50.194;7.690;2022-07-23T11:35:51;28.40;93.00
18450;DHT22;9354;50.194;7.690;2022-07-23T11:38:27;28.40;92.70
18450;DHT22;9354;50.194;7.690;2022-07-23T11:40:55;28.40;92.70
18450;DHT22;9354;50.194;7.690;2022-07-23T11:43:24;28.50;92.70
18450;DHT22;9354;50.194;7.690;2022-07-23T11:45:53;28.60;92.60
18450;DHT22;9354;50.194;7.690;2022-07-23T11:48:23;28.90;92.20
18450;DHT22;9354;50.194;7.690;2022-07-23T11:50:52;29.10;92.00
18450;DHT22;9354;50.194;7.690;2022-07-23T11:53:23;29.30;91.70
18450;DHT22;9354;50.194;7.690;2022-07-23T11:55:51;29.50;90.70
18450;DHT22;9354;50.194;7.690;2022-07-23T11:58:19;29.60;90.10
18450;DHT22;9354;50.194;7.690;2022-07-23T12:00:46;29.60;89.60
18450;DHT22;9354;50.194;7.690;2022-07-23T12:03:14;29.50;89.10
18450;DHT22;9354;50.194;7.690;2022-07-23T12:05:43;29.50;88.80
18450;DHT22;9354;50.194;7.690;2022-07-23T12:08:10;29.50;88.80
18450;DHT22;9354;50.194;7.690;2022-07-23T12:10:39;29.60;87.90
18450;DHT22;9354;50.194;7.690;2022-07-23T12:13:09;29.60;87.10
18450;DHT22;9354;50.194;7.690;2022-07-23T12:15:39;29.50;86.20
18450;DHT22;9354;50.194;7.690;2022-07-23T12:18:10;29.40;85.90
18450;DHT22;9354;50.194;7.690;2022-07-23T12:20:40;29.50;86.10
18450;DHT22;9354;50.194;7.690;2022-07-23T12:23:10;29.50;85.10
18450;DHT22;9354;50.194;7.690;2022-07-23T12:25:40;29.50;85.10
18450;DHT22;9354;50.194;7.690;2022-07-23T12:28:10;29.50;84.90
18450;DHT22;9354;50.194;7.690;2022-07-23T12:30:39;29.70;85.50
18450;DHT22;9354;50.194;7.690;2022-07-23T12:33:09;29.80;83.80
18450;DHT22;9354;50.194;7.690;2022-07-23T12:35:38;29.90;82.90
18450;DHT22;9354;50.194;7.690;2022-07-23T12:38:10;29.90;82.90
18450;DHT22;9354;50.194;7.690;2022-07-23T12:40:43;29.80;82.00
18450;DHT22;9354;50.194;7.690;2022-07-23T12:43:18;29.70;81.50
18450;DHT22;9354;50.194;7.690;2022-07-23T12:45:47;29.70;81.80
18450;DHT22;9354;50.194;7.690;2022-07-23T12:48:19;29.80;82.00
18450;DHT22;9354;50.194;7.690;2022-07-23T12:50:59;29.80;81.00
18450;DHT22;9354;50.194;7.690;2022-07-23T12:53:30;29.90;81.40
18450;DHT22;9354;50.194;7.690;2022-07-23T12:56:04;29.90;80.70
18450;DHT22;9354;50.194;7.690;2022-07-23T12:58:46;29.90;80.20
18450;DHT22;9354;50.194;7.690;2022-07-23T13:01:25;30.00;80.10
18450;DHT22;9354;50.194;7.690;2022-07-23T13:03:58;30.10;80.30
18450;DHT22;9354;50.194;7.690;2022-07-23T13:06:26;30.20;80.30
18450;DHT22;9354;50.194;7.690;2022-07-23T13:08:55;30.30;80.10
18450;DHT22;9354;50.194;7.690;2022-07-23T13:11:23;30.40;79.70
18450;DHT22;9354;50.194;7.690;2022-07-23T13:13:51;30.30;79.00
18450;DHT22;9354;50.194;7.690;2022-07-23T13:16:18;30.20;77.90
18450;DHT22;9354;50.194;7.690;2022-07-23T13:18:46;30.10;78.40
18450;DHT22;9354;50.194;7.690;2022-07-23T13:21:13;30.10;78.40
18450;DHT22;9354;50.194;7.690;2022-07-23T13:23:42;30.20;78.50
18450;DHT22;9354;50.194;7.690;2022-07-23T13:26:10;30.30;78.30
18450;DHT22;9354;50.194;7.690;2022-07-23T13:28:38;30.50;78.20
18450;DHT22;9354;50.194;7.690;2022-07-23T13:31:05;30.50;77.40
18450;DHT22;9354;50.194;7.690;2022-07-23T13:33:33;30.50;77.30
18450;DHT22;9354;50.194;7.690;2022-07-23T13:36:01;30.40;77.30
18450;DHT22;9354;50.194;7.690;2022-07-23T13:38:28;30.50;76.70
18450;DHT22;9354;50.194;7.690;2022-07-23T13:40:56;30.50;76.90
18450;DHT22;9354;50.194;7.690;2022-07-23T13:43:25;30.50;76.80
18450;DHT22;9354;50.194;7.690;2022-07-23T13:45:53;30.40;76.90
18450;DHT22;9354;50.194;7.690;2022-07-23T13:48:21;30.40;76.80
18450;DHT22;9354;50.194;7.690;2022-07-23T13:50:49;30.40;76.40
18450;DHT22;9354;50.194;7.690;2022-07-23T13:53:21;30.40;75.60
18450;DHT22;9354;50.194;7.690;2022-07-23T13:55:50;30.40;75.10
18450;DHT22;9354;50.194;7.690;2022-07-23T13:58:19;30.50;75.20
18450;DHT22;9354;50.194;7.690;2022-07-23T14:00:51;30.60;74.30
18450;DHT22;9354;50.194;7.690;2022-07-23T14:03:19;30.50;73.80
18450;DHT22;9354;50.194;7.690;2022-07-23T14:05:48;30.50;73.80
18450;DHT22;9354;50.194;7.690;2022-07-23T14:08:16;30.60;73.80
18450;DHT22;9354;50.194;7.690;2022-07-23T14:10:43;30.60;74.00
18450;DHT22;9354;50.194;7.690;2022-07-23T14:13:11;30.60;73.80
18450;DHT22;9354;50.194;7.690;2022-07-23T14:15:38;30.60;73.00
18450;DHT22;9354;50.194;7.690;2022-07-23T14:18:07;30.50;73.00
18450;DHT22;9354;50.194;7.690;2022-07-23T14:20:35;30.50;73.00
18450;DHT22;9354;50.194;7.690;2022-07-23T14:23:03;30.50;73.20
18450;DHT22;9354;50.194;7.690;2022-07-23T14:25:30;30.60;72.90
18450;DHT22;9354;50.194;7.690;2022-07-23T14:27:57;30.60;72.80
18450;DHT22;9354;50.194;7.690;2022-07-23T14:30:25;30.70;72.30
18450;DHT22;9354;50.194;7.690;2022-07-23T14:32:52;30.70;71.50
18450;DHT22;9354;50.194;7.690;2022-07-23T14:35:21;30.60;71.00
18450;DHT22;9354;50.194;7.690;2022-07-23T14:37:49;30.50;71.20
18450;DHT22;9354;50.194;7.690;2022-07-23T14:40:17;30.50;71.50
18450;DHT22;9354;50.194;7.690;2022-07-23T14:42:44;30.40;71.30
18450;DHT22;9354;50.194;7.690;2022-07-23T14:45:11;30.30;71.40
18450;DHT22;9354;50.194;7.690;2022-07-23T14:47:39;30.20;71.70
18450;DHT22;9354;50.194;7.690;2022-07-23T14:50:07;30.20;71.80
18450;DHT22;9354;50.194;7.690;2022-07-23T14:52:36;30.20;71.70
18450;DHT22;9354;50.194;7.690;2022-07-23T14:55:04;30.20;71.30
18450;DHT22;9354;50.194;7.690;2022-07-23T14:57:31;30.10;71.20
18450;DHT22;9354;50.194;7.690;2022-07-23T14:59:59;30.10;71.40
18450;DHT22;9354;50.194;7.690;2022-07-23T15:02:27;30.10;71.30
18450;DHT22;9354;50.194;7.690;2022-07-23T15:04:54;30.00;71.00
18450;DHT22;9354;50.194;7.690;2022-07-23T15:07:24;30.10;71.40
18450;DHT22;9354;50.194;7.690;2022-07-23T15:09:52;30.00;70.90
18450;DHT22;9354;50.194;7.690;2022-07-23T15:12:20;30.00;70.70
18450;DHT22;9354;50.194;7.690;2022-07-23T15:14:47;30.00;71.00
18450;DHT22;9354;50.194;7.690;2022-07-23T15:17:15;29.90;71.20
18450;DHT22;9354;50.194;7.690;2022-07-23T15:19:42;29.90;71.40
18450;DHT22;9354;50.194;7.690;2022-07-23T15:22:10;30.00;70.80
18450;DHT22;9354;50.194;7.690;2022-07-23T15:24:37;29.90;70.50
18450;DHT22;9354;50.194;7.690;2022-07-23T15:27:06;29.90;70.40
18450;DHT22;9354;50.194;7.690;2022-07-23T15:29:34;29.90;70.30
18450;DHT22;9354;50.194;7.690;2022-07-23T15:32:03;29.80;70.40
18450;DHT22;9354;50.194;7.690;2022-07-23T15:34:33;29.80;70.50
18450;DHT22;9354;50.194;7.690;2022-07-23T15:37:00;29.70;70.60
18450;DHT22;9354;50.194;7.690;2022-07-23T15:39:28;29.70;70.70
18450;DHT22;9354;50.194;7.690;2022-07-23T15:41:59;29.60;70.40
18450;DHT22;9354;50.194;7.690;2022-07-23T15:44:27;29.60;70.80
18450;DHT22;9354;50.194;7.690;2022-07-23T15:46:57;29.50;70.80
18450;DHT22;9354;50.194;7.690;2022-07-23T15:49:25;29.40;70.40
18450;DHT22;9354;50.194;7.690;2022-07-23T15:51:52;29.40;70.30
18450;DHT22;9354;50.194;7.690;2022-07-23T15:54:20;29.30;70.50
18450;DHT22;9354;50.194;7.690;2022-07-23T15:56:48;29.30;70.70
18450;DHT22;9354;50.194;7.690;2022-07-23T15:59:15;29.20;70.70